nieuwe - new website meteo.heerschap.net

We konden geen weer-waarchuwingen ophalen. Ga rechtstreeks naar de Meteoalarm site : www.meteoalarm.eu en controleer daar .


Tervuren markt Meer informatie Tervuren markt


Bezoek onze andere website:

Meteotemplate

Home Weather Station

Saratoga


Lokaal brand risico:
CBI


Regionaal brand risico: Meer informatie



METAR rapporten vliegvelden

   
EBBR - Brussels
Gewijzigd: Mar 21 2023 11:50 pm
Grotendeels bewolkt  
Grotendeels bewolkt  
   Wind: Zuiden 11.1 km/h
Wind: Zuiden 11.1 km/h
Temperatuur: 10°C
Voelt als: 8°C
Dauwpunt: 8°C
Vochtigheid: 88%
Barometer: 1011 mb
Bewolking: Grotendeels bewolkt
Zicht: meer dan 10 km
Bewolking: Grotendeels bewolkt 1280.2 m
EBBR 212250Z 18006KT 9999 BKN042 10/08 Q1011 NOSIG
EBAW - Antwerp
Gewijzigd: Mar 21 2023 11:50 pm
  
  
   Wind: Zuiden 9.3 km/h
Wind: Zuiden 9.3 km/h
Temperatuur: 10°C
Voelt als: 9°C
Dauwpunt: 6°C
Vochtigheid: 76%
Barometer: 1010 mb
Zicht: meer dan 10 km
Bewolking: Bewolking
EBAW 212250Z AUTO 18005KT 9999 // VV/// 10/06 Q1010
EHBK - Maastricht
Gewijzigd: Mar 21 2023 11:55 pm
Grotendeels bewolkt  
Grotendeels bewolkt  
   Wind: ZW 22.2 km/h
Wind: ZW 22.2 km/h
Temperatuur: 12°C
Dauwpunt: 8°C
Vochtigheid: 77%
Barometer: 1011 mb
Bewolking: Grotendeels bewolkt
Zicht: meer dan 10 km
Bewolking: Gedeeltelijk bewolkt 1036.3 m,
Grotendeels bewolkt 1280.2 m
EHBK 212255Z AUTO 22012KT 9999 SCT034 BKN042 12/08 Q1011
EDLV - Nijmegen
Gewijzigd: Mar 21 2023 11:50 pm
Helder  
Helder  
   Wind: ZZW 18.5 km/h
Wind: ZZW 18.5 km/h
Temperatuur: 11°C
Dauwpunt: 8°C
Vochtigheid: 82%
Barometer: 1010 mb
Zicht: meer dan 10 km
Bewolking: Helder
EDLV 212250Z 21010KT CAVOK 11/08 Q1010
EHRD - Rotterdam
Gewijzigd: Mar 21 2023 11:55 pm
Gedeeltelijk bewolkt  
Gedeeltelijk bewolkt  
   Wind: ZZW 27.8 km/h
Wind: ZZW 27.8 km/h
Temperatuur: 10°C
Voelt als: 7°C
Dauwpunt: 8°C
Vochtigheid: 88%
Barometer: 1008 mb
Bewolking: Gedeeltelijk bewolkt
Zicht: meer dan 10 km
Bewolking: Gedeeltelijk bewolkt
EHRD 212255Z AUTO 21015KT 9999 NSC 10/08 Q1008 NOSIG
ENGM - Oslo
Gewijzigd: Mar 21 2023 11:50 pm
Wat regen mogelijk, Sneeuw, Nevel, Grotendeels bewolkt  
Wat regen mogelijk, Sneeuw, Nevel, Grotendeels bewolkt  
   Wind: Zuiden 7.4 km/h
Wind: Zuiden 7.4 km/h
Temperatuur: 0°C
Voelt als: -3°C
Dauwpunt: 0°C
Vochtigheid: 100%
Barometer: 1002 mb
Bewolking: Grotendeels bewolkt
Zicht: 5 km
Bewolking: Grotendeels bewolkt 91.4 m
ENGM 212250Z 17004KT 4500 -RASN BR BKN003 00/M00 Q1002

Script ontwikkeld door  Saratoga-weather.org Aangepast voor de template door  Weerstation Leuven

U vindt ons ook hier:

Het Weer Aktueel

UK Metoffice

European Weather Network

WeatherCloud

Weather Underground

Benelux Weer Netwerk

AWEKAS

Citizen Weather Observer Program (CWOP)

HAMweather, WeatherForYou, PWS Weather

Apparatuur in gebruik:

Weerstation
Davis VP2

Weerprogramma
Meteobridge

Weercomputer
Meteobridge NANO

Davis VP2

Meteobridge

Meteobridge NANO